Station: Wilsons Promontory  

  Atmospheric Gas Attenuation - ITU Rec 676-11   ----------------- dB/100km -----------------
Date Time Temp RH % AH g/m3 Dew Point Wind Direction Speed kph Gust kph Barometer mB Rainfall Since 9am 24GHz 47GHz 76GHz 122GHz 134GHz 241GHz
08/05 12:30 14.1 71 8.62 8.9 80 98 1016.2 0 19.6 25.9 39.9 104.6 98.5 338.9
08/05 12:20 14 74 8.93 9.4 87 95 1016.5 0 20.3 26.5 41.2 108.1 102.8 353.9
08/05 12:10 14.2 70 8.55 8.8 69 93 1016.4 0 19.5 25.8 39.5 103.7 97.5 335.3
08/05 12:00 14.3 73 8.97 9.5 63 83 1016.4 0 20.4 26.5 41.2 108.1 102.9 354.4
08/05 11:50 14.5 72 8.96 9.5 61 69 1016.9 0 20.3 26.4 41.1 107.8 102.6 353.1
08/05 11:40 14.2 71 8.67 9 69 83 1017.2 0 19.7 26.0 40.1 105.1 99.1 341.1
08/05 11:30 14.3 76 9.34 10.1 70 87 1016.8 0 21.1 27.1 42.7 112.2 107.9 371.8
08/05 11:20 13.9 74 8.87 9.3 83 87 1016.7 0 20.2 26.4 41.0 107.6 102.1 351.6
08/05 11:10 13.8 73 8.7 9 89 93 1016.8 0 19.8 26.2 40.4 105.9 100.0 344.1
08/05 11:00 14.6 64 8.01 7.9 72 96 1016.7 0 18.3 24.9 37.2 97.6 90.0 309.2
08/05 10:50 14.6 68 8.51 8.8 76 96 1015.9 0 19.4 25.6 39.2 102.7 96.4 331.7
08/05 10:40 14.3 73 8.97 9.5 80 91 1016.9 0 20.4 26.5 41.2 108.1 103.0 354.5
08/05 10:30 13.5 76 8.89 9.4 72 102 1018 0 20.2 26.6 41.3 108.5 103.1 354.7
08/05 10:20 14.2 74 9.04 9.6 61 70 1017 0 20.5 26.6 41.5 109.1 104.0 358.3
08/05 10:10 14.1 74 8.98 9.5 78 91 1016.3 0 20.4 26.5 41.3 108.5 103.3 355.7
08/05 10:00 13.4 75 8.72 9.1 78 106 1016.8 0 19.9 26.3 40.6 106.7 100.8 346.8
08/05 09:50 14.1 72 8.74 9.1 67 78 1016.5 0 19.9 26.2 40.4 105.9 100.1 344.6
08/05 09:40 14 73 8.81 9.2 85 91 1016.1 0 20.0 26.3 40.7 106.7 101.2 348.2
08/05 09:30 13.9 73 8.75 9.1 61 80 1016.4 0 19.9 26.2 40.5 106.3 100.5 345.9
08/05 09:20 13.8 74 8.82 9.3 67 74 1016.1 0 20.1 26.4 40.8 107.1 101.6 349.5
08/05 09:10 13.9 71 8.51 8.7 85 98 1015.3 0 19.4 25.8 39.5 103.6 97.3 334.5
08/05 09:00 13.9 73 8.75 9.1 69 91 1015.5 0 19.9 26.2 40.5 106.2 100.4 345.6
08/05 08:50 13.9 74 8.87 9.3 72 91 1015.1 2.4 20.2 26.4 40.9 107.4 102.0 351.1
08/05 08:40 13.9 73 8.75 9.1 70 80 1014.8 2.4 19.9 26.2 40.4 106.1 100.4 345.4
08/05 08:30 14 73 8.81 9.2 82 102 1014 2.4 20.0 26.2 40.6 106.5 101.0 347.6
08/05 08:20 13.7 76 9 9.6 98 104 1013.6 2.4 20.4 26.6 41.5 108.9 103.9 357.7
08/05 08:10 14 73 8.81 9.2 76 91 1014 2.4 20.0 26.2 40.6 106.5 101.0 347.6
08/05 08:00 14.2 71 8.67 9 78 98 1013.6 2.4 19.7 25.9 39.9 104.7 98.8 340.1
08/05 07:50 14 69 8.32 8.4 76 85 1013.3 2.4 19.0 25.4 38.6 101.2 94.5 324.8
08/05 07:40 14.1 65 7.89 7.6 93 104 1012.8 2.4 18.1 24.7 36.8 96.5 88.8 304.8
08/05 07:30 13.7 77 9.12 9.7 83 104 1012.8 2.4 20.7 26.8 41.9 110.2 105.4 363.1
08/05 07:20 13.5 78 9.12 9.7 76 85 1012.8 2.4 20.7 26.8 42.0 110.4 105.7 364.0
08/05 07:10 13.6 80 9.42 10.2 72 85 1012.8 2.4 21.4 27.3 43.2 113.6 109.6 377.8
08/05 07:00 13.6 79 9.3 10 72 102 1013.2 2.4 21.1 27.1 42.8 112.3 108.0 372.2
08/05 06:50 13.4 74 8.6 8.9 83 98 1012.1 2.4 19.6 26.0 39.9 104.9 98.8 339.9
08/05 06:40 13.8 74 8.82 9.3 80 89 1012.3 2.4 20.1 26.2 40.6 106.7 101.2 348.4
08/05 06:30 13.7 73 8.64 9 91 115 1012.2 2.4 19.7 25.9 40.0 104.9 99.0 340.5
08/05 06:20 13.7 74 8.76 9.2 93 109 1012.1 2.4 19.9 26.1 40.4 106.2 100.6 346.0
08/05 06:10 13.9 76 9.11 9.7 65 80 1012.8 2.4 20.7 26.7 41.8 109.8 105.0 361.7
08/05 06:00 13.6 77 9.06 9.6 72 93 1012.1 2.4 20.6 26.7 41.7 109.6 104.7 360.5
08/05 05:50 13.1 81 9.24 9.9 78 89 1012.3 2.4 21.0 27.1 42.7 112.3 107.8 371.5
08/05 05:40 13.5 83 9.71 10.7 61 76 1012.8 2.4 22.0 27.8 44.5 117.0 113.8 392.2
08/05 05:30 12.8 85 9.52 10.3 78 109 1012.5 2.4 21.6 27.7 44.1 115.9 112.1 386.4
08/05 05:20 12.8 82 9.19 9.8 93 117 1011.3 2.4 20.9 27.1 42.6 112.1 107.5 370.2
08/05 05:10 13.1 85 9.7 10.6 93 98 1012 2.4 22.0 27.9 44.6 117.4 114.1 393.5
08/05 05:00 14 76 9.17 9.8 83 106 1011.7 2.4 20.8 26.7 41.9 110.2 105.6 363.7
08/05 04:50 13.9 77 9.23 9.9 69 83 1012 2.4 20.9 26.8 42.2 111.0 106.6 367.1
08/05 04:40 14 76 9.17 9.8 83 107 1011.1 2.4 20.8 26.7 41.9 110.1 105.5 363.6
08/05 04:30 13.8 78 9.29 10 69 102 1011.4 2.4 21.1 27.0 42.5 111.7 107.5 370.2
08/05 04:20 13.5 81 9.47 10.3 65 80 1012 2.4 21.5 27.4 43.5 114.2 110.4 380.4
08/05 04:10 14 76 9.17 9.8 74 87 1011.4 2.4 20.8 26.7 41.9 110.1 105.6 363.6
08/05 04:00 13.7 79 9.36 10.1 70 91 1012 2.4 21.2 27.1 42.9 112.7 108.6 374.2
08/05 03:50 13.8 79 9.41 10.2 89 98 1011.3 2.4 21.3 27.1 43.0 113.0 109.1 375.9
08/05 03:40 13.3 87 10.05 11.2 83 120 1010.4 2.4 22.7 28.4 45.9 120.9 118.6 409.0
08/05 03:30 12.8 90 10.08 11.2 82 119 1011.2 2.4 22.8 28.6 46.4 122.1 119.8 413.4
08/05 03:20 13.7 84 9.95 11 70 95 1011.7 2 22.5 28.1 45.3 119.3 116.7 402.4
08/05 03:10 13 85 9.64 10.5 76 87 1011.5 1.8 21.9 27.8 44.4 116.8 113.4 390.9
08/05 03:00 13.4 86 10 11.1 70 89 1011.6 1.8 22.6 28.3 45.7 120.3 117.8 406.4
08/05 02:50 12.8 88 9.86 10.9 72 85 1011.3 1.8 22.3 28.2 45.5 119.6 116.8 402.6
08/05 02:40 13.1 85 9.7 10.6 82 104 1010.5 1.8 22.0 27.8 44.6 117.2 114.0 393.0
08/05 02:30 13.6 81 9.53 10.4 70 98 1011.2 1.6 21.6 27.4 43.6 114.7 111.0 382.6
08/05 02:20 13.5 86 10.06 11.2 61 87 1011.7 1.6 22.7 28.4 45.9 120.8 118.5 408.8
08/05 02:10 12.9 87 9.81 10.8 82 96 1011.1 1.6 22.2 28.1 45.2 118.8 115.9 399.6
08/05 02:00 13.3 85 9.82 10.8 69 89 1011.6 1.6 22.2 28.0 45.0 118.4 115.5 398.2
08/05 01:50 13.3 86 9.94 11 74 91 1011.5 1.6 22.5 28.2 45.5 119.7 117.1 404.0
08/05 01:40 13.3 88 10.17 11.4 76 91 1011.4 1.6 23.0 28.6 46.5 122.3 120.3 415.2
08/05 01:30 13.2 88 10.1 11.3 67 95 1010.9 1.6 22.8 28.5 46.2 121.6 119.5 412.1
08/05 01:20 13.8 83 9.89 11 72 87 1011.4 1.2 22.4 28.0 45.0 118.4 115.7 398.9
08/05 01:10 13.7 83 9.83 10.9 70 80 1011.8 1.2 22.2 27.9 44.8 117.9 115.0 396.7
08/05 01:00 13.7 83 9.83 10.9 72 102 1011.5 1.2 22.2 27.9 44.8 117.9 115.0 396.6
08/05 00:50 13.5 83 9.71 10.7 74 95 1011.4 1.2 22.0 27.7 44.4 116.8 113.6 391.8
08/05 00:40 13.7 84 9.95 11 69 82 1011.7 1.2 22.5 28.1 45.3 119.3 116.7 402.4
08/05 00:30 13.5 84 9.83 10.9 69 91 1011.8 1.2 22.2 28.0 45.0 118.2 115.3 397.7
08/05 00:20 13.5 84 9.83 10.9 72 87 1012 1.2 22.2 28.0 45.0 118.2 115.3 397.8
08/05 00:10 13.6 81 9.53 10.4 78 85 1012.1 1 21.6 27.4 43.7 114.8 111.1 382.8
08/05 00:00 13.6 82 9.65 10.6 61 91 1012.6 1 21.9 27.7 44.2 116.1 112.8 388.8
07/05 23:50 13.7 81 9.59 10.5 65 80 1012.4 1 21.7 27.5 43.9 115.3 111.8 385.3
07/05 23:40 13.5 83 9.71 10.7 63 80 1012.7 1 22.0 27.8 44.5 117.0 113.8 392.2
07/05 23:30 13.6 81 9.53 10.4 70 96 1012.7 1 21.6 27.5 43.7 114.8 111.1 383.0
07/05 23:20 13.4 82 9.53 10.4 65 80 1012.8 1 21.6 27.5 43.8 115.1 111.4 384.0
07/05 23:10 13.1 84 9.59 10.5 63 83 1013 1 21.7 27.7 44.2 116.3 112.7 388.5
07/05 23:00 13.3 83 9.59 10.5 67 96 1013.2 1 21.7 27.7 44.1 116.0 112.4 387.5
07/05 22:50 13.3 83 9.59 10.5 63 80 1013 1 21.7 27.7 44.1 116.0 112.4 387.5
07/05 22:40 12.9 86 9.69 10.6 52 83 1013.5 1 22.0 28.0 44.8 117.8 114.4 394.5
07/05 22:30 12.8 86 9.63 10.5 59 89 1013.1 1 21.8 27.9 44.6 117.2 113.7 392.0
07/05 22:20 12.5 85 9.35 10 63 76 1013.5 1 21.3 27.5 43.6 114.5 110.3 380.0
07/05 22:10 12.4 86 9.4 10.1 50 67 1014.3 1 21.4 27.7 43.9 115.3 111.2 383.2
07/05 22:00 12.4 87 9.51 10.3 48 83 1014.5 1 21.6 27.9 44.4 116.6 112.8 388.6
07/05 21:50 12.4 86 9.4 10.1 52 65 1014.5 1 21.4 27.7 43.9 115.3 111.2 383.2
07/05 21:40 12.3 87 9.45 10.2 52 76 1014.4 0.8 21.5 27.8 44.2 116.0 112.1 386.1
07/05 21:30 12.2 85 9.17 9.8 63 87 1013.9 0.8 20.9 27.3 43.0 113.0 108.3 372.9
07/05 21:20 11.9 84 8.9 9.3 52 63 1014.7 0.8 20.3 27.0 42.1 110.5 105.1 361.5
07/05 21:10 12.1 82 8.79 9.1 63 85 1014.2 0.8 20.1 26.7 41.5 108.9 103.2 355.2
07/05 21:00 12.1 81 8.69 8.9 50 69 1014.7 0.8 19.9 26.6 41.1 107.9 101.9 350.6
07/05 20:50 12.1 82 8.79 9.1 43 65 1015.3 0.8 20.1 26.8 41.5 109.1 103.3 355.5
07/05 20:40 12.1 78 8.37 8.4 50 67 1015 0.8 19.2 26.1 39.8 104.4 97.6 335.6
07/05 20:30 11.9 77 8.16 8 54 80 1014.8 0.8 18.7 25.8 39.0 102.4 95.1 326.5
07/05 20:20 11.5 80 8.26 8.2 52 67 1015 0.8 19.0 26.1 39.6 104.0 96.9 332.9
07/05 20:10 11.3 80 8.16 8 54 70 1015.1 0.8 18.8 26.0 39.3 103.2 95.8 329.1
07/05 20:00 11.1 81 8.16 8 54 80 1015 0.8 18.8 26.0 39.4 103.4 96.1 329.9

Last Refresh: 08-May-2026 12:07:38

Bureau of Meteorology